createdAt,value
2023-09-14T00:02:16.747Z,18.44
2023-09-14T00:04:47.620Z,18.42
2023-09-14T00:07:17.624Z,18.40
2023-09-14T00:09:47.680Z,18.39
2023-09-14T00:12:17.795Z,18.37
2023-09-14T00:14:47.801Z,18.35
2023-09-14T00:17:18.250Z,18.34
2023-09-14T00:19:48.222Z,18.32
2023-09-14T00:22:18.171Z,18.29
2023-09-14T00:24:48.232Z,18.26
2023-09-14T00:27:18.104Z,18.24
2023-09-14T00:29:50.021Z,18.21
2023-09-14T00:32:19.941Z,18.18
2023-09-14T00:34:49.961Z,18.15
2023-09-14T00:37:19.943Z,18.13
2023-09-14T00:39:50.051Z,18.11
2023-09-14T00:42:20.289Z,18.10
2023-09-14T00:44:50.268Z,18.08
2023-09-14T00:47:20.181Z,18.06
2023-09-14T00:49:50.198Z,18.04
2023-09-14T00:52:20.195Z,18.01
2023-09-14T00:54:50.212Z,17.98
2023-09-14T00:57:21.923Z,17.96
2023-09-14T00:59:52.096Z,17.92
2023-09-14T01:02:22.119Z,17.89
2023-09-14T01:04:52.319Z,17.85
2023-09-14T01:07:22.423Z,17.82
2023-09-14T01:09:52.766Z,17.78
2023-09-14T01:12:22.901Z,17.75
2023-09-14T01:14:56.702Z,17.72
2023-09-14T01:17:32.879Z,17.71
2023-09-14T01:20:12.512Z,17.69
2023-09-14T01:22:47.344Z,17.68
2023-09-14T01:25:20.526Z,17.67
2023-09-14T01:27:50.806Z,17.66
2023-09-14T01:30:20.929Z,17.65
2023-09-14T01:32:50.965Z,17.64
2023-09-14T01:35:21.197Z,17.64
2023-09-14T01:37:51.219Z,17.63
2023-09-14T01:40:21.096Z,17.63
2023-09-14T01:42:51.174Z,17.63
2023-09-14T01:45:21.265Z,17.64
2023-09-14T01:47:54.392Z,17.64
2023-09-14T01:50:24.728Z,17.64
2023-09-14T01:52:55.416Z,17.64
2023-09-14T01:55:27.856Z,17.65
2023-09-14T01:57:58.044Z,17.66
2023-09-14T02:00:28.206Z,17.66
2023-09-14T02:02:58.425Z,17.66
2023-09-14T02:05:28.622Z,17.66
2023-09-14T02:07:58.918Z,17.66
2023-09-14T02:10:29.191Z,17.67
2023-09-14T02:13:00.279Z,17.66
2023-09-14T02:15:30.622Z,17.67
2023-09-14T02:18:01.995Z,17.67
2023-09-14T02:20:32.477Z,17.67
2023-09-14T02:23:02.481Z,17.66
2023-09-14T02:25:32.497Z,17.65
2023-09-14T02:28:03.880Z,17.64
2023-09-14T02:30:34.317Z,17.62
2023-09-14T02:33:05.334Z,17.60
2023-09-14T02:35:35.312Z,17.58
2023-09-14T02:38:05.668Z,17.57
2023-09-14T02:40:36.361Z,17.56
2023-09-14T02:43:06.476Z,17.55
2023-09-14T02:45:36.416Z,17.53
2023-09-14T02:48:07.554Z,17.51
2023-09-14T02:50:37.438Z,17.47
2023-09-14T02:53:07.744Z,17.45
2023-09-14T02:55:37.759Z,17.40
2023-09-14T02:58:09.620Z,17.35
2023-09-14T03:00:41.297Z,17.28
2023-09-14T03:03:13.362Z,17.22
2023-09-14T03:05:44.675Z,17.15
2023-09-14T03:08:16.200Z,17.09
2023-09-14T03:10:46.984Z,17.01
2023-09-14T03:13:17.123Z,16.94
2023-09-14T03:15:47.280Z,16.87
2023-09-14T03:18:17.349Z,16.81
2023-09-14T03:20:51.072Z,16.75
2023-09-14T03:23:21.287Z,16.71
2023-09-14T03:25:52.030Z,16.67
2023-09-14T03:28:22.028Z,16.64
2023-09-14T03:30:52.727Z,16.61
2023-09-14T03:33:23.264Z,16.58
2023-09-14T03:35:53.324Z,16.55
2023-09-14T03:38:23.482Z,16.55
2023-09-14T03:40:53.579Z,16.55
2023-09-14T03:43:23.692Z,16.55
2023-09-14T03:45:53.998Z,16.54
2023-09-14T03:48:24.293Z,16.54
2023-09-14T03:50:58.191Z,16.52
2023-09-14T03:53:28.252Z,16.52
2023-09-14T03:55:58.745Z,16.52
2023-09-14T03:58:32.400Z,16.52
2023-09-14T04:01:04.319Z,16.51
2023-09-14T04:03:34.630Z,16.53
2023-09-14T04:06:04.901Z,16.53
2023-09-14T04:08:34.881Z,16.54
2023-09-14T04:11:05.055Z,16.55
2023-09-14T04:13:35.694Z,16.55
2023-09-14T04:16:10.601Z,16.56
2023-09-14T04:18:45.795Z,16.58
2023-09-14T04:21:16.049Z,16.59
2023-09-14T04:23:46.589Z,16.60
2023-09-14T04:26:19.690Z,16.62
2023-09-14T04:28:49.909Z,16.64
2023-09-14T04:31:21.203Z,16.66
2023-09-14T04:33:51.512Z,16.67
2023-09-14T04:36:21.953Z,16.69
2023-09-14T04:38:52.581Z,16.70
2023-09-14T04:41:22.507Z,16.71
2023-09-14T04:43:52.450Z,16.73
2023-09-14T04:46:22.605Z,16.76
2023-09-14T04:48:55.618Z,16.78
2023-09-14T04:51:25.784Z,16.81
2023-09-14T04:53:55.968Z,16.85
2023-09-14T04:56:25.982Z,16.89
2023-09-14T04:58:56.043Z,16.92
2023-09-14T05:01:26.040Z,16.97
2023-09-14T05:03:56.241Z,17.01
2023-09-14T05:06:26.246Z,17.05
2023-09-14T05:08:56.465Z,17.09
2023-09-14T05:11:26.395Z,17.13
2023-09-14T05:13:56.962Z,17.16
2023-09-14T05:16:27.179Z,17.19
2023-09-14T05:18:57.473Z,17.23
2023-09-14T05:21:27.770Z,17.27
2023-09-14T05:23:58.105Z,17.32
2023-09-14T05:26:28.543Z,17.36
2023-09-14T05:28:58.577Z,17.40
2023-09-14T05:31:28.892Z,17.44
2023-09-14T05:33:59.396Z,17.47
2023-09-14T05:36:29.919Z,17.49
2023-09-14T05:38:59.981Z,17.51
2023-09-14T05:41:29.992Z,17.55
2023-09-14T05:44:00.796Z,17.60
2023-09-14T05:46:31.158Z,17.67
2023-09-14T05:49:02.552Z,17.73
2023-09-14T05:51:32.708Z,17.80
2023-09-14T05:54:03.571Z,17.86
2023-09-14T05:56:34.713Z,17.94
2023-09-14T05:59:07.623Z,18.02
2023-09-14T06:01:45.236Z,18.10
2023-09-14T06:04:15.278Z,18.17
2023-09-14T06:06:45.473Z,18.26
2023-09-14T06:09:16.680Z,18.34
2023-09-14T06:11:47.069Z,18.42
2023-09-14T06:14:17.090Z,18.51
2023-09-14T06:16:47.138Z,18.59
2023-09-14T06:19:17.469Z,18.69
2023-09-14T06:21:47.718Z,18.77
2023-09-14T06:24:19.142Z,18.86
2023-09-14T06:26:49.497Z,18.95
2023-09-14T06:29:19.810Z,19.03
2023-09-14T06:31:51.150Z,19.11
2023-09-14T06:34:22.764Z,19.19
2023-09-14T06:36:52.851Z,19.27
2023-09-14T06:39:23.079Z,19.36
2023-09-14T06:41:53.099Z,19.44
2023-09-14T06:44:24.777Z,19.52
2023-09-14T06:46:55.436Z,19.61
2023-09-14T06:49:25.588Z,19.71
2023-09-14T06:51:55.727Z,19.80
2023-09-14T06:54:25.706Z,19.89
2023-09-14T06:56:55.827Z,19.99
2023-09-14T06:59:26.013Z,20.08
2023-09-14T07:01:56.094Z,20.18
2023-09-14T07:04:26.593Z,20.29
2023-09-14T07:06:56.939Z,20.39
2023-09-14T07:09:27.484Z,20.48
2023-09-14T07:11:58.556Z,20.57
2023-09-14T07:14:28.855Z,20.67
2023-09-14T07:16:59.582Z,20.76
2023-09-14T07:19:30.208Z,20.86
2023-09-14T07:22:00.417Z,20.96
2023-09-14T07:24:30.455Z,21.05
2023-09-14T07:27:00.525Z,21.14
2023-09-14T07:29:31.179Z,21.24
2023-09-14T07:32:01.583Z,21.34
2023-09-14T07:34:32.424Z,21.42
2023-09-14T07:37:03.080Z,21.51
2023-09-14T07:39:36.435Z,21.62
2023-09-14T07:42:07.357Z,21.72
2023-09-14T07:44:38.035Z,21.81
2023-09-14T07:47:08.384Z,21.90
2023-09-14T07:49:39.407Z,21.99
2023-09-14T07:52:10.032Z,22.07
2023-09-14T07:54:40.274Z,22.16
2023-09-14T07:57:10.314Z,22.25
2023-09-14T07:59:40.313Z,22.34
2023-09-14T08:02:10.386Z,22.44
2023-09-14T08:04:40.945Z,22.54
2023-09-14T08:07:11.484Z,22.64
2023-09-14T08:09:41.475Z,22.75
2023-09-14T08:12:11.753Z,22.85
2023-09-14T08:14:42.198Z,22.95
2023-09-14T08:17:12.748Z,23.05
2023-09-14T08:19:44.225Z,23.13
2023-09-14T08:22:21.638Z,23.23
2023-09-14T08:24:52.202Z,23.34
2023-09-14T08:27:22.958Z,23.43
2023-09-14T08:29:53.259Z,23.53
2023-09-14T08:32:23.805Z,23.63
2023-09-14T08:34:59.054Z,23.71
2023-09-14T08:37:46.967Z,23.84
2023-09-14T08:40:19.723Z,23.92
2023-09-14T08:42:51.014Z,24.00
2023-09-14T08:45:23.888Z,24.07
2023-09-14T08:47:57.188Z,24.15
2023-09-14T08:50:29.253Z,24.25
2023-09-14T08:52:59.768Z,24.35
2023-09-14T08:55:32.580Z,24.45
2023-09-14T08:58:02.847Z,24.55
2023-09-14T09:00:33.546Z,24.64
2023-09-14T09:03:04.145Z,24.73
2023-09-14T09:05:34.946Z,24.84
2023-09-14T09:08:05.630Z,24.94
2023-09-14T09:10:37.782Z,25.04
2023-09-14T09:13:08.069Z,25.14
2023-09-14T09:15:40.089Z,25.24
2023-09-14T09:18:10.909Z,25.33
2023-09-14T09:20:42.252Z,25.43
2023-09-14T09:23:17.139Z,25.53
2023-09-14T09:25:49.127Z,25.63
2023-09-14T09:28:19.289Z,25.72
2023-09-14T09:30:55.619Z,25.83
2023-09-14T09:33:36.861Z,25.92
2023-09-14T09:36:17.646Z,26.02
2023-09-14T09:38:48.878Z,26.10
2023-09-14T09:41:19.364Z,26.18
2023-09-14T09:43:50.918Z,26.26
2023-09-14T09:46:21.177Z,26.34
2023-09-14T09:48:54.221Z,26.43
2023-09-14T09:51:25.823Z,26.52
2023-09-14T09:54:05.945Z,26.60
2023-09-14T09:56:39.696Z,26.69
2023-09-14T09:59:14.329Z,26.76
2023-09-14T10:01:47.082Z,26.84
2023-09-14T10:04:19.116Z,26.92
2023-09-14T10:06:53.529Z,27.00
2023-09-14T10:09:27.802Z,27.08
2023-09-14T10:12:02.211Z,27.17
2023-09-14T10:14:32.792Z,27.25
2023-09-14T10:17:03.236Z,27.32
2023-09-14T10:19:33.723Z,27.38
2023-09-14T10:22:04.081Z,27.44
2023-09-14T10:24:34.472Z,27.52
2023-09-14T10:27:04.843Z,27.58
2023-09-14T10:29:34.876Z,27.65
2023-09-14T10:32:06.191Z,27.72
2023-09-14T10:34:38.337Z,27.80
2023-09-14T10:37:09.368Z,27.86
2023-09-14T10:39:39.553Z,27.92
2023-09-14T10:42:09.562Z,27.99
2023-09-14T10:44:39.609Z,28.06
2023-09-14T10:47:10.022Z,28.13
2023-09-14T10:49:42.246Z,28.19
2023-09-14T10:52:12.447Z,28.23
2023-09-14T10:54:42.579Z,28.25
2023-09-14T10:57:23.865Z,28.27
2023-09-14T10:59:54.893Z,28.28
2023-09-14T11:03:17.739Z,28.29
2023-09-14T11:05:48.995Z,28.30
2023-09-14T11:08:21.064Z,28.30
2023-09-14T11:10:57.056Z,28.33
2023-09-14T11:13:32.645Z,28.36
2023-09-14T11:16:15.348Z,28.40
2023-09-14T11:18:59.300Z,28.44
2023-09-14T11:21:45.010Z,28.50
2023-09-14T11:24:17.875Z,28.55
2023-09-14T11:26:53.602Z,28.61
2023-09-14T11:29:29.203Z,28.67
2023-09-14T11:32:06.257Z,28.75
2023-09-14T11:34:44.216Z,28.84
2023-09-14T11:37:19.866Z,28.91
2023-09-14T11:40:00.307Z,28.97
2023-09-14T11:43:11.631Z,29.00
2023-09-14T11:45:48.245Z,29.05
2023-09-14T11:50:53.071Z,29.13
2023-09-14T11:53:25.890Z,29.18
2023-09-14T11:55:56.031Z,29.23
2023-09-14T11:58:26.803Z,29.30
2023-09-14T12:00:57.307Z,29.40
2023-09-14T12:03:28.608Z,29.46
2023-09-14T12:06:01.085Z,29.52
2023-09-14T12:08:31.723Z,29.57
2023-09-14T12:11:01.743Z,29.58
2023-09-14T12:13:31.738Z,29.58
2023-09-14T12:16:03.286Z,29.57
2023-09-14T12:18:43.806Z,29.55
2023-09-14T12:21:14.118Z,29.52
2023-09-14T12:23:45.584Z,29.47
2023-09-14T12:26:16.364Z,29.41
2023-09-14T12:28:47.974Z,29.34
2023-09-14T12:31:18.098Z,29.29
2023-09-14T12:33:48.460Z,29.25
2023-09-14T12:36:20.133Z,29.21
2023-09-14T12:38:50.590Z,29.18
2023-09-14T12:41:20.974Z,29.15
2023-09-14T12:43:51.255Z,29.12
2023-09-14T12:46:24.952Z,29.09
2023-09-14T12:48:55.060Z,29.06
2023-09-14T12:51:25.300Z,29.01
2023-09-14T12:53:57.803Z,28.97
2023-09-14T12:56:27.769Z,28.94
2023-09-14T12:58:57.929Z,28.89
2023-09-14T13:01:28.068Z,28.83
2023-09-14T13:04:00.137Z,28.77
2023-09-14T13:06:34.630Z,28.70
2023-09-14T13:09:09.851Z,28.63
2023-09-14T13:11:40.689Z,28.56
2023-09-14T13:14:14.978Z,28.49
2023-09-14T13:16:56.411Z,28.41
2023-09-14T13:19:27.226Z,28.33
2023-09-14T13:22:08.265Z,28.26
2023-09-14T13:24:38.386Z,28.17
2023-09-14T13:27:08.427Z,28.07
2023-09-14T13:29:38.564Z,27.98
2023-09-14T13:32:08.464Z,27.89
2023-09-14T13:34:38.494Z,27.80
2023-09-14T13:37:08.910Z,27.72
2023-09-14T13:39:39.091Z,27.64
2023-09-14T13:42:09.095Z,27.57
2023-09-14T13:44:39.248Z,27.51
2023-09-14T13:47:09.308Z,27.46
2023-09-14T13:49:39.898Z,27.40
2023-09-14T13:52:09.755Z,27.35
2023-09-14T13:54:40.091Z,27.33
2023-09-14T13:57:10.477Z,27.32
2023-09-14T13:59:40.997Z,27.36
2023-09-14T14:02:10.970Z,27.47
2023-09-14T14:04:41.251Z,27.62
2023-09-14T14:07:12.588Z,27.83
2023-09-14T14:09:42.789Z,28.04
2023-09-14T14:12:12.941Z,28.25
2023-09-14T14:14:42.870Z,28.41
2023-09-14T14:17:13.069Z,28.56
2023-09-14T14:19:42.953Z,28.71
2023-09-14T14:22:12.829Z,28.82
2023-09-14T14:24:42.821Z,28.81
2023-09-14T14:27:16.597Z,28.75
2023-09-14T14:29:47.254Z,28.67
2023-09-14T14:32:17.205Z,28.58
2023-09-14T14:34:47.057Z,28.48
2023-09-14T14:37:17.084Z,28.37
2023-09-14T14:39:47.959Z,28.25
2023-09-14T14:42:17.984Z,28.14
2023-09-14T14:44:48.195Z,28.01
2023-09-14T14:47:19.761Z,27.90
2023-09-14T14:49:50.040Z,27.80
2023-09-14T14:52:19.971Z,27.70
2023-09-14T14:54:50.368Z,27.59
2023-09-14T14:57:20.786Z,27.48
2023-09-14T14:59:50.703Z,27.39
2023-09-14T15:02:20.913Z,27.29
2023-09-14T15:04:50.944Z,27.21
2023-09-14T15:07:20.896Z,27.13
2023-09-14T15:09:50.983Z,27.05
2023-09-14T15:12:20.876Z,26.98
2023-09-14T15:14:50.711Z,26.90
2023-09-14T15:17:20.557Z,26.83
2023-09-14T15:19:51.426Z,26.74
2023-09-14T15:22:21.353Z,26.68
2023-09-14T15:24:51.724Z,26.61
2023-09-14T15:27:21.792Z,26.54
2023-09-14T15:29:52.165Z,26.48
2023-09-14T15:32:22.317Z,26.40
2023-09-14T15:34:52.644Z,26.28
2023-09-14T15:37:23.123Z,26.11
2023-09-14T15:39:53.135Z,25.98
2023-09-14T15:42:23.588Z,25.82
2023-09-14T15:44:53.719Z,25.68
2023-09-14T15:47:24.802Z,25.53
2023-09-14T15:49:55.058Z,25.35
2023-09-14T15:52:24.977Z,25.17
2023-09-14T15:54:55.132Z,24.95
2023-09-14T15:57:25.363Z,24.75
2023-09-14T15:59:55.254Z,24.54
2023-09-14T16:02:25.202Z,24.35
2023-09-14T16:04:56.624Z,24.19
2023-09-14T16:07:26.616Z,24.06
2023-09-14T16:09:57.791Z,23.97
2023-09-14T16:12:28.049Z,23.88
2023-09-14T16:14:58.225Z,23.80
2023-09-14T16:17:28.251Z,23.72
2023-09-14T16:20:00.840Z,23.65
2023-09-14T16:22:30.947Z,23.58
2023-09-14T16:25:01.972Z,23.52
2023-09-14T16:27:32.203Z,23.47
2023-09-14T16:30:02.338Z,23.41
2023-09-14T16:32:33.004Z,23.36
2023-09-14T16:35:03.056Z,23.30
2023-09-14T16:37:33.468Z,23.26
2023-09-14T16:40:05.192Z,23.22
2023-09-14T16:42:35.479Z,23.17
2023-09-14T16:45:06.632Z,23.10
2023-09-14T16:47:36.862Z,23.05
2023-09-14T16:50:08.398Z,23.01
2023-09-14T16:52:38.466Z,22.96
2023-09-14T16:55:09.252Z,22.91
2023-09-14T16:57:39.394Z,22.85
2023-09-14T17:00:14.474Z,22.80
2023-09-14T17:02:44.702Z,22.75
2023-09-14T17:05:19.251Z,23.11
2023-09-14T17:07:49.201Z,25.37
2023-09-14T17:10:20.034Z,25.60
2023-09-14T17:12:50.223Z,25.02
2023-09-14T17:15:20.589Z,24.51
2023-09-14T17:17:50.610Z,24.12
2023-09-14T17:20:22.542Z,23.81
2023-09-14T17:22:52.453Z,23.58
2023-09-14T17:25:22.786Z,23.38
2023-09-14T17:27:52.837Z,23.20
2023-09-14T17:30:23.165Z,23.04
2023-09-14T17:32:53.582Z,22.93
2023-09-14T17:35:23.849Z,22.81
2023-09-14T17:37:53.797Z,22.71
2023-09-14T17:40:24.023Z,23.12
2023-09-14T17:42:57.207Z,25.33
2023-09-14T17:45:27.418Z,25.51
2023-09-14T17:47:59.235Z,24.92
2023-09-14T17:50:29.257Z,24.36
2023-09-14T17:52:59.464Z,23.92
2023-09-14T17:55:31.643Z,23.60
2023-09-14T17:58:01.633Z,23.35
2023-09-14T18:00:32.956Z,23.14
2023-09-14T18:03:03.366Z,22.96
2023-09-14T18:05:33.673Z,22.82
2023-09-14T18:08:04.720Z,23.10
2023-09-14T18:10:34.944Z,25.19
2023-09-14T18:13:05.477Z,25.36
2023-09-14T18:15:38.907Z,24.77
2023-09-14T18:18:09.353Z,24.22
2023-09-14T18:20:39.560Z,23.80
2023-09-14T18:23:10.282Z,23.46
2023-09-14T18:25:40.167Z,23.19
2023-09-14T18:28:10.325Z,22.98
2023-09-14T18:30:40.596Z,22.78
2023-09-14T18:33:11.071Z,22.63
2023-09-14T18:35:44.326Z,22.99
2023-09-14T18:38:14.410Z,25.17
2023-09-14T18:40:44.358Z,25.27
2023-09-14T18:43:15.140Z,24.65
2023-09-14T18:45:45.050Z,24.10
2023-09-14T18:48:15.354Z,23.65
2023-09-14T18:50:48.991Z,23.30
2023-09-14T18:53:19.190Z,23.00
2023-09-14T18:55:50.120Z,22.75
2023-09-14T18:58:49.012Z,23.07
2023-09-14T19:01:12.344Z,25.24
2023-09-14T19:03:43.075Z,25.08
2023-09-14T19:06:13.459Z,24.46
2023-09-14T19:08:44.447Z,23.90
2023-09-14T19:11:14.452Z,23.49
2023-09-14T19:13:44.563Z,23.16
2023-09-14T19:16:14.601Z,22.91
2023-09-14T19:18:45.004Z,22.67
2023-09-14T19:21:15.407Z,22.95
2023-09-14T19:23:45.682Z,24.96
2023-09-14T19:26:15.736Z,25.06
2023-09-14T19:28:45.993Z,24.46
2023-09-14T19:31:16.364Z,23.89
2023-09-14T19:33:46.462Z,23.44
2023-09-14T19:36:16.364Z,23.08
2023-09-14T19:38:47.259Z,22.77
2023-09-14T19:41:17.877Z,22.51
2023-09-14T19:43:48.484Z,22.29
2023-09-14T19:46:18.894Z,22.61
2023-09-14T19:48:49.282Z,24.72
2023-09-14T19:51:19.571Z,24.82
2023-09-14T19:53:49.662Z,24.18
2023-09-14T19:56:20.002Z,23.62
2023-09-14T19:58:50.218Z,23.19
2023-09-14T20:01:20.200Z,22.86
2023-09-14T20:03:50.458Z,22.60
2023-09-14T20:06:23.003Z,22.38
2023-09-14T20:08:53.214Z,22.68
2023-09-14T20:11:23.428Z,24.73
2023-09-14T20:13:53.651Z,24.83
2023-09-14T20:16:23.753Z,24.21
2023-09-14T20:18:53.999Z,23.64
2023-09-14T20:21:25.420Z,23.22
2023-09-14T20:23:55.295Z,22.86
2023-09-14T20:26:25.383Z,22.57
2023-09-14T20:28:55.775Z,22.35
2023-09-14T20:31:25.751Z,22.65
2023-09-14T20:33:55.967Z,24.73
2023-09-14T20:36:31.445Z,24.84
2023-09-14T20:39:01.625Z,24.18
2023-09-14T20:41:33.572Z,23.61
2023-09-14T20:44:04.906Z,23.16
2023-09-14T20:46:38.503Z,22.80
2023-09-14T20:49:08.703Z,22.52
2023-09-14T20:51:39.949Z,22.66
2023-09-14T20:54:12.366Z,24.73
2023-09-14T20:56:42.430Z,24.73
2023-09-14T20:59:13.964Z,24.11
2023-09-14T21:01:45.771Z,23.55
2023-09-14T21:04:15.982Z,23.11
2023-09-14T21:06:45.918Z,22.77
2023-09-14T21:09:15.907Z,22.51
2023-09-14T21:11:45.794Z,22.74
2023-09-14T21:14:22.624Z,24.70
2023-09-14T21:16:52.790Z,24.75
2023-09-14T21:19:23.028Z,24.10
2023-09-14T21:22:02.221Z,23.52
2023-09-14T21:24:32.334Z,23.05
2023-09-14T21:27:02.376Z,22.70
2023-09-14T21:29:32.434Z,22.42
2023-09-14T21:32:02.461Z,22.67
2023-09-14T21:34:32.860Z,24.66
2023-09-14T21:37:03.053Z,24.73
2023-09-14T21:39:33.372Z,24.09
2023-09-14T21:42:03.626Z,23.51
2023-09-14T21:50:02.354Z,22.35
2023-09-14T21:52:34.292Z,22.57
2023-09-14T21:55:05.993Z,24.63
2023-09-14T21:57:36.186Z,24.66
2023-09-14T22:00:18.606Z,23.98
2023-09-14T22:02:49.297Z,23.35
2023-09-14T22:10:45.331Z,22.00
2023-09-14T22:13:15.498Z,22.30
2023-09-14T22:15:46.210Z,24.38
2023-09-14T22:18:16.082Z,24.44
2023-09-14T22:20:46.170Z,23.75
2023-09-14T22:23:16.068Z,23.13
2023-09-14T22:25:46.144Z,22.64
2023-09-14T22:28:16.716Z,22.25
2023-09-14T22:30:47.878Z,22.42
2023-09-14T22:33:17.866Z,24.36
2023-09-14T22:35:47.824Z,24.37
2023-09-14T22:38:17.869Z,23.68
2023-09-14T22:40:48.774Z,23.09
2023-09-14T22:43:19.394Z,22.63
2023-09-14T22:45:49.605Z,22.27
2023-09-14T22:48:19.813Z,21.99
2023-09-14T22:51:05.874Z,22.17
2023-09-14T22:53:38.659Z,24.24
2023-09-14T22:56:16.972Z,24.14
2023-09-14T22:58:47.395Z,23.46
2023-09-14T23:01:17.544Z,22.89
2023-09-14T23:03:47.623Z,22.45
2023-09-14T23:06:18.410Z,22.11
2023-09-14T23:08:48.748Z,21.84
2023-09-14T23:11:25.163Z,21.60
2023-09-14T23:13:55.423Z,21.94
2023-09-14T23:16:26.034Z,24.05
2023-09-14T23:18:56.615Z,24.11
2023-09-14T23:21:27.080Z,23.44
2023-09-14T23:23:57.125Z,22.85
2023-09-14T23:26:27.163Z,22.40
2023-09-14T23:28:57.380Z,22.03
2023-09-14T23:31:28.627Z,21.75
2023-09-14T23:34:01.946Z,21.50
2023-09-14T23:36:32.208Z,21.75
2023-09-14T23:39:05.788Z,23.84
2023-09-14T23:41:36.271Z,23.96
2023-09-14T23:44:08.627Z,23.31
2023-09-14T23:46:41.984Z,22.71
2023-09-14T23:49:14.444Z,22.24
2023-09-14T23:51:45.963Z,21.87
2023-09-14T23:54:16.112Z,21.60
2023-09-14T23:56:47.373Z,21.35
2023-09-14T23:59:17.452Z,21.62
